sensor_id;sensor_type;location;lat;lon;timestamp;temperature;humidity
25332;DHT22;13284;52.748;13.452;2023-07-28T00:02:21;17.10;99.90
25332;DHT22;13284;52.748;13.452;2023-07-28T00:04:47;17.10;99.90
25332;DHT22;13284;52.748;13.452;2023-07-28T00:07:12;17.10;99.90
25332;DHT22;13284;52.748;13.452;2023-07-28T00:09:38;17.00;99.90
25332;DHT22;13284;52.748;13.452;2023-07-28T00:12:03;17.10;99.90
25332;DHT22;13284;52.748;13.452;2023-07-28T00:14:29;17.00;99.90
25332;DHT22;13284;52.748;13.452;2023-07-28T00:16:56;17.10;99.90
25332;DHT22;13284;52.748;13.452;2023-07-28T00:19:21;17.10;99.90
25332;DHT22;13284;52.748;13.452;2023-07-28T00:21:48;17.10;99.90
25332;DHT22;13284;52.748;13.452;2023-07-28T00:24:13;17.10;99.90
25332;DHT22;13284;52.748;13.452;2023-07-28T00:26:39;17.10;99.90
25332;DHT22;13284;52.748;13.452;2023-07-28T00:29:04;17.10;99.90
25332;DHT22;13284;52.748;13.452;2023-07-28T00:31:32;17.10;99.90
25332;DHT22;13284;52.748;13.452;2023-07-28T00:33:57;17.10;99.90
25332;DHT22;13284;52.748;13.452;2023-07-28T00:36:23;17.10;99.90
25332;DHT22;13284;52.748;13.452;2023-07-28T00:38:48;17.20;99.90
25332;DHT22;13284;52.748;13.452;2023-07-28T00:41:14;17.10;99.90
25332;DHT22;13284;52.748;13.452;2023-07-28T00:43:39;17.10;99.90
25332;DHT22;13284;52.748;13.452;2023-07-28T00:46:05;17.10;99.90
25332;DHT22;13284;52.748;13.452;2023-07-28T00:48:30;17.10;99.90
25332;DHT22;13284;52.748;13.452;2023-07-28T00:50:56;17.20;99.90
25332;DHT22;13284;52.748;13.452;2023-07-28T00:53:23;17.10;99.90
25332;DHT22;13284;52.748;13.452;2023-07-28T00:55:49;17.20;99.90
25332;DHT22;13284;52.748;13.452;2023-07-28T00:58:14;17.20;99.90
25332;DHT22;13284;52.748;13.452;2023-07-28T01:00:40;17.20;99.90
25332;DHT22;13284;52.748;13.452;2023-07-28T01:03:06;17.20;99.90
25332;DHT22;13284;52.748;13.452;2023-07-28T01:05:58;17.20;99.90
25332;DHT22;13284;52.748;13.452;2023-07-28T01:11:14;17.20;99.90
25332;DHT22;13284;52.748;13.452;2023-07-28T01:13:39;17.20;99.90
25332;DHT22;13284;52.748;13.452;2023-07-28T01:16:06;17.20;99.90
25332;DHT22;13284;52.748;13.452;2023-07-28T01:18:32;17.20;99.90
25332;DHT22;13284;52.748;13.452;2023-07-28T01:21:01;17.20;99.90
25332;DHT22;13284;52.748;13.452;2023-07-28T01:23:44;17.20;99.90
25332;DHT22;13284;52.748;13.452;2023-07-28T01:26:15;17.20;99.90
25332;DHT22;13284;52.748;13.452;2023-07-28T01:28:42;17.20;99.90
25332;DHT22;13284;52.748;13.452;2023-07-28T01:31:08;17.30;99.90
25332;DHT22;13284;52.748;13.452;2023-07-28T01:33:34;17.30;99.90
25332;DHT22;13284;52.748;13.452;2023-07-28T01:36:00;17.30;99.90
25332;DHT22;13284;52.748;13.452;2023-07-28T01:38:26;17.30;99.90
25332;DHT22;13284;52.748;13.452;2023-07-28T01:40:52;17.30;99.90
25332;DHT22;13284;52.748;13.452;2023-07-28T01:43:18;17.30;99.90
25332;DHT22;13284;52.748;13.452;2023-07-28T01:45:43;17.30;99.90
25332;DHT22;13284;52.748;13.452;2023-07-28T01:48:09;17.30;99.90
25332;DHT22;13284;52.748;13.452;2023-07-28T01:50:35;17.30;99.90
25332;DHT22;13284;52.748;13.452;2023-07-28T01:53:01;17.30;99.90
25332;DHT22;13284;52.748;13.452;2023-07-28T01:55:27;17.30;99.90
25332;DHT22;13284;52.748;13.452;2023-07-28T01:57:58;17.30;99.90
25332;DHT22;13284;52.748;13.452;2023-07-28T02:00:24;17.30;99.90
25332;DHT22;13284;52.748;13.452;2023-07-28T02:02:50;17.40;99.90
25332;DHT22;13284;52.748;13.452;2023-07-28T02:05:16;17.30;99.90
25332;DHT22;13284;52.748;13.452;2023-07-28T02:07:42;17.40;99.90
25332;DHT22;13284;52.748;13.452;2023-07-28T02:10:08;17.40;99.90
25332;DHT22;13284;52.748;13.452;2023-07-28T02:12:34;17.40;99.90
25332;DHT22;13284;52.748;13.452;2023-07-28T02:14:59;17.40;99.90
25332;DHT22;13284;52.748;13.452;2023-07-28T02:17:25;17.40;99.90
25332;DHT22;13284;52.748;13.452;2023-07-28T02:19:51;17.40;99.90
25332;DHT22;13284;52.748;13.452;2023-07-28T02:22:16;17.40;99.90
25332;DHT22;13284;52.748;13.452;2023-07-28T02:24:42;17.40;99.90
25332;DHT22;13284;52.748;13.452;2023-07-28T02:27:07;17.40;99.90
25332;DHT22;13284;52.748;13.452;2023-07-28T02:29:33;17.40;99.90
25332;DHT22;13284;52.748;13.452;2023-07-28T02:31:58;17.50;99.90
25332;DHT22;13284;52.748;13.452;2023-07-28T02:34:23;17.50;99.90
25332;DHT22;13284;52.748;13.452;2023-07-28T02:36:49;17.50;99.90
25332;DHT22;13284;52.748;13.452;2023-07-28T02:39:15;17.50;99.90
25332;DHT22;13284;52.748;13.452;2023-07-28T02:41:40;17.50;99.90
25332;DHT22;13284;52.748;13.452;2023-07-28T02:44:06;17.50;99.90
25332;DHT22;13284;52.748;13.452;2023-07-28T02:46:31;17.50;99.90
25332;DHT22;13284;52.748;13.452;2023-07-28T02:48:57;17.50;99.90
25332;DHT22;13284;52.748;13.452;2023-07-28T02:51:22;17.50;99.90
25332;DHT22;13284;52.748;13.452;2023-07-28T02:53:48;17.50;99.90
25332;DHT22;13284;52.748;13.452;2023-07-28T02:56:13;17.50;99.90
25332;DHT22;13284;52.748;13.452;2023-07-28T02:58:39;17.50;99.90
25332;DHT22;13284;52.748;13.452;2023-07-28T03:01:04;17.50;99.90
25332;DHT22;13284;52.748;13.452;2023-07-28T03:03:30;17.50;99.90
25332;DHT22;13284;52.748;13.452;2023-07-28T03:05:56;17.50;99.90
25332;DHT22;13284;52.748;13.452;2023-07-28T03:08:21;17.50;99.90
25332;DHT22;13284;52.748;13.452;2023-07-28T03:10:47;17.50;99.90
25332;DHT22;13284;52.748;13.452;2023-07-28T03:13:12;17.50;99.90
25332;DHT22;13284;52.748;13.452;2023-07-28T03:15:38;17.50;99.90
25332;DHT22;13284;52.748;13.452;2023-07-28T03:18:03;17.50;99.90
25332;DHT22;13284;52.748;13.452;2023-07-28T03:20:29;17.50;99.90
25332;DHT22;13284;52.748;13.452;2023-07-28T03:22:55;17.60;99.90
25332;DHT22;13284;52.748;13.452;2023-07-28T03:25:20;17.50;99.90
25332;DHT22;13284;52.748;13.452;2023-07-28T03:27:46;17.50;99.90
25332;DHT22;13284;52.748;13.452;2023-07-28T03:30:11;17.50;99.90
25332;DHT22;13284;52.748;13.452;2023-07-28T03:32:37;17.50;99.90
25332;DHT22;13284;52.748;13.452;2023-07-28T03:35:03;17.50;99.90
25332;DHT22;13284;52.748;13.452;2023-07-28T03:37:31;17.60;99.90
25332;DHT22;13284;52.748;13.452;2023-07-28T03:39:56;17.50;99.90
25332;DHT22;13284;52.748;13.452;2023-07-28T03:42:22;17.60;99.90
25332;DHT22;13284;52.748;13.452;2023-07-28T03:44:47;17.60;99.90
25332;DHT22;13284;52.748;13.452;2023-07-28T03:47:13;17.50;99.90
25332;DHT22;13284;52.748;13.452;2023-07-28T03:49:38;17.50;99.90
25332;DHT22;13284;52.748;13.452;2023-07-28T03:52:04;17.50;99.90
25332;DHT22;13284;52.748;13.452;2023-07-28T03:54:30;17.60;99.90
25332;DHT22;13284;52.748;13.452;2023-07-28T03:56:55;17.50;99.90
25332;DHT22;13284;52.748;13.452;2023-07-28T03:59:21;17.60;99.90
25332;DHT22;13284;52.748;13.452;2023-07-28T04:01:46;17.60;99.90
25332;DHT22;13284;52.748;13.452;2023-07-28T04:04:13;17.60;99.90
25332;DHT22;13284;52.748;13.452;2023-07-28T04:06:46;17.60;99.90
25332;DHT22;13284;52.748;13.452;2023-07-28T04:09:16;17.60;99.90
25332;DHT22;13284;52.748;13.452;2023-07-28T04:11:41;17.60;99.90
25332;DHT22;13284;52.748;13.452;2023-07-28T04:14:07;17.60;99.90
25332;DHT22;13284;52.748;13.452;2023-07-28T04:16:33;17.60;99.90
25332;DHT22;13284;52.748;13.452;2023-07-28T04:18:58;17.60;99.90
25332;DHT22;13284;52.748;13.452;2023-07-28T04:21:24;17.60;99.90
25332;DHT22;13284;52.748;13.452;2023-07-28T04:23:50;17.60;99.90
25332;DHT22;13284;52.748;13.452;2023-07-28T04:26:16;17.60;99.90
25332;DHT22;13284;52.748;13.452;2023-07-28T04:28:42;17.60;99.90
25332;DHT22;13284;52.748;13.452;2023-07-28T04:31:08;17.60;99.90
25332;DHT22;13284;52.748;13.452;2023-07-28T04:33:33;17.60;99.90
25332;DHT22;13284;52.748;13.452;2023-07-28T04:35:59;17.70;99.90
25332;DHT22;13284;52.748;13.452;2023-07-28T04:38:25;17.60;99.90
25332;DHT22;13284;52.748;13.452;2023-07-28T04:40:50;17.70;99.90
25332;DHT22;13284;52.748;13.452;2023-07-28T04:43:16;17.70;99.90
25332;DHT22;13284;52.748;13.452;2023-07-28T04:45:41;17.70;99.90
25332;DHT22;13284;52.748;13.452;2023-07-28T04:48:06;17.70;99.90
25332;DHT22;13284;52.748;13.452;2023-07-28T04:50:32;17.70;99.90
25332;DHT22;13284;52.748;13.452;2023-07-28T04:52:59;17.70;99.90
25332;DHT22;13284;52.748;13.452;2023-07-28T04:55:24;17.70;99.90
25332;DHT22;13284;52.748;13.452;2023-07-28T04:57:52;17.70;99.90
25332;DHT22;13284;52.748;13.452;2023-07-28T05:00:17;17.70;99.90
25332;DHT22;13284;52.748;13.452;2023-07-28T05:02:43;17.70;99.90
25332;DHT22;13284;52.748;13.452;2023-07-28T05:05:08;17.70;99.90
25332;DHT22;13284;52.748;13.452;2023-07-28T05:07:34;17.70;99.90
25332;DHT22;13284;52.748;13.452;2023-07-28T05:09:59;17.80;99.90
25332;DHT22;13284;52.748;13.452;2023-07-28T05:12:25;17.80;99.90
25332;DHT22;13284;52.748;13.452;2023-07-28T05:14:50;17.80;99.90
25332;DHT22;13284;52.748;13.452;2023-07-28T05:17:16;17.80;99.90
25332;DHT22;13284;52.748;13.452;2023-07-28T05:19:41;17.80;99.90
25332;DHT22;13284;52.748;13.452;2023-07-28T05:22:07;17.80;99.90
25332;DHT22;13284;52.748;13.452;2023-07-28T05:24:33;17.80;99.90
25332;DHT22;13284;52.748;13.452;2023-07-28T05:26:59;17.90;99.90
25332;DHT22;13284;52.748;13.452;2023-07-28T05:29:24;17.90;99.90
25332;DHT22;13284;52.748;13.452;2023-07-28T05:31:50;18.00;99.90
25332;DHT22;13284;52.748;13.452;2023-07-28T05:34:15;18.00;99.90
25332;DHT22;13284;52.748;13.452;2023-07-28T05:36:40;18.00;99.90
25332;DHT22;13284;52.748;13.452;2023-07-28T05:39:06;18.00;99.90
25332;DHT22;13284;52.748;13.452;2023-07-28T05:41:31;18.00;99.90
25332;DHT22;13284;52.748;13.452;2023-07-28T05:43:57;18.10;99.90
25332;DHT22;13284;52.748;13.452;2023-07-28T05:46:23;18.00;99.90
25332;DHT22;13284;52.748;13.452;2023-07-28T05:48:48;18.00;99.90
25332;DHT22;13284;52.748;13.452;2023-07-28T05:51:14;18.00;99.90
25332;DHT22;13284;52.748;13.452;2023-07-28T05:53:40;18.00;99.90
25332;DHT22;13284;52.748;13.452;2023-07-28T05:56:05;18.00;99.90
25332;DHT22;13284;52.748;13.452;2023-07-28T05:58:31;18.00;99.90
25332;DHT22;13284;52.748;13.452;2023-07-28T06:00:57;18.00;99.90
25332;DHT22;13284;52.748;13.452;2023-07-28T06:03:22;17.90;99.90
25332;DHT22;13284;52.748;13.452;2023-07-28T06:05:48;17.90;99.90
25332;DHT22;13284;52.748;13.452;2023-07-28T06:08:14;17.90;99.90
25332;DHT22;13284;52.748;13.452;2023-07-28T06:10:39;17.90;99.90
25332;DHT22;13284;52.748;13.452;2023-07-28T06:13:05;17.90;99.90
25332;DHT22;13284;52.748;13.452;2023-07-28T06:15:33;17.90;99.90
25332;DHT22;13284;52.748;13.452;2023-07-28T06:18:00;17.90;99.90
25332;DHT22;13284;52.748;13.452;2023-07-28T06:20:26;17.90;99.90
25332;DHT22;13284;52.748;13.452;2023-07-28T06:22:52;17.90;99.90
25332;DHT22;13284;52.748;13.452;2023-07-28T06:25:17;17.90;99.90
25332;DHT22;13284;52.748;13.452;2023-07-28T06:27:43;18.00;99.90
25332;DHT22;13284;52.748;13.452;2023-07-28T06:30:09;18.00;99.90
25332;DHT22;13284;52.748;13.452;2023-07-28T06:32:34;18.10;99.90
25332;DHT22;13284;52.748;13.452;2023-07-28T06:35:00;18.20;99.90
25332;DHT22;13284;52.748;13.452;2023-07-28T06:37:25;18.20;99.90
25332;DHT22;13284;52.748;13.452;2023-07-28T06:39:51;18.20;99.90
25332;DHT22;13284;52.748;13.452;2023-07-28T06:42:16;18.20;99.90
25332;DHT22;13284;52.748;13.452;2023-07-28T06:44:46;18.20;99.90
25332;DHT22;13284;52.748;13.452;2023-07-28T06:47:11;18.30;99.90
25332;DHT22;13284;52.748;13.452;2023-07-28T06:49:37;18.30;99.90
25332;DHT22;13284;52.748;13.452;2023-07-28T06:52:03;18.40;99.90
25332;DHT22;13284;52.748;13.452;2023-07-28T06:54:28;18.40;99.90
25332;DHT22;13284;52.748;13.452;2023-07-28T06:56:53;18.30;99.90
25332;DHT22;13284;52.748;13.452;2023-07-28T06:59:19;18.30;99.90
25332;DHT22;13284;52.748;13.452;2023-07-28T07:01:44;18.30;99.90
25332;DHT22;13284;52.748;13.452;2023-07-28T07:04:10;18.30;99.90
25332;DHT22;13284;52.748;13.452;2023-07-28T07:06:36;18.30;99.90
25332;DHT22;13284;52.748;13.452;2023-07-28T07:09:02;18.30;99.90
25332;DHT22;13284;52.748;13.452;2023-07-28T07:11:49;18.30;99.90
25332;DHT22;13284;52.748;13.452;2023-07-28T07:14:23;18.40;99.90
25332;DHT22;13284;52.748;13.452;2023-07-28T07:16:49;18.50;99.90
25332;DHT22;13284;52.748;13.452;2023-07-28T07:19:14;18.50;99.90
25332;DHT22;13284;52.748;13.452;2023-07-28T07:21:41;18.50;99.90
25332;DHT22;13284;52.748;13.452;2023-07-28T07:24:09;18.50;99.90
25332;DHT22;13284;52.748;13.452;2023-07-28T07:26:35;18.40;99.90
25332;DHT22;13284;52.748;13.452;2023-07-28T07:29:00;18.30;99.90
25332;DHT22;13284;52.748;13.452;2023-07-28T07:31:26;18.30;99.90
25332;DHT22;13284;52.748;13.452;2023-07-28T07:33:52;18.30;99.90
25332;DHT22;13284;52.748;13.452;2023-07-28T07:36:20;18.30;99.90
25332;DHT22;13284;52.748;13.452;2023-07-28T07:38:46;18.30;99.90
25332;DHT22;13284;52.748;13.452;2023-07-28T07:41:13;18.20;99.90
25332;DHT22;13284;52.748;13.452;2023-07-28T07:43:41;18.20;99.90
25332;DHT22;13284;52.748;13.452;2023-07-28T07:46:07;18.20;99.90
25332;DHT22;13284;52.748;13.452;2023-07-28T07:48:32;18.20;99.90
25332;DHT22;13284;52.748;13.452;2023-07-28T07:50:58;18.30;99.90
25332;DHT22;13284;52.748;13.452;2023-07-28T07:53:23;18.30;99.90
25332;DHT22;13284;52.748;13.452;2023-07-28T07:55:49;18.50;99.90
25332;DHT22;13284;52.748;13.452;2023-07-28T07:58:14;18.50;99.90
25332;DHT22;13284;52.748;13.452;2023-07-28T08:00:40;18.60;99.90
25332;DHT22;13284;52.748;13.452;2023-07-28T08:03:06;18.60;99.90
25332;DHT22;13284;52.748;13.452;2023-07-28T08:05:31;18.70;99.90
25332;DHT22;13284;52.748;13.452;2023-07-28T08:07:57;18.60;99.90
25332;DHT22;13284;52.748;13.452;2023-07-28T08:10:22;18.70;99.90
25332;DHT22;13284;52.748;13.452;2023-07-28T08:12:48;18.70;99.90
25332;DHT22;13284;52.748;13.452;2023-07-28T08:15:14;18.70;99.90
25332;DHT22;13284;52.748;13.452;2023-07-28T08:17:40;18.70;99.90
25332;DHT22;13284;52.748;13.452;2023-07-28T08:20:08;18.70;99.90
25332;DHT22;13284;52.748;13.452;2023-07-28T08:22:34;18.70;99.90
25332;DHT22;13284;52.748;13.452;2023-07-28T08:25:00;18.60;99.90
25332;DHT22;13284;52.748;13.452;2023-07-28T08:27:25;18.60;99.90
25332;DHT22;13284;52.748;13.452;2023-07-28T08:29:51;18.70;99.90
25332;DHT22;13284;52.748;13.452;2023-07-28T08:32:16;18.70;99.90
25332;DHT22;13284;52.748;13.452;2023-07-28T08:34:42;18.80;99.90
25332;DHT22;13284;52.748;13.452;2023-07-28T08:37:07;18.80;99.90
25332;DHT22;13284;52.748;13.452;2023-07-28T08:39:33;18.70;99.90
25332;DHT22;13284;52.748;13.452;2023-07-28T08:42:02;18.90;99.90
25332;DHT22;13284;52.748;13.452;2023-07-28T08:44:31;19.00;99.90
25332;DHT22;13284;52.748;13.452;2023-07-28T08:46:57;19.20;99.90
25332;DHT22;13284;52.748;13.452;2023-07-28T08:49:22;19.20;99.90
25332;DHT22;13284;52.748;13.452;2023-07-28T08:51:51;19.40;99.90
25332;DHT22;13284;52.748;13.452;2023-07-28T08:54:17;19.50;99.90
25332;DHT22;13284;52.748;13.452;2023-07-28T08:56:43;19.60;99.90
25332;DHT22;13284;52.748;13.452;2023-07-28T08:59:09;19.70;99.90
25332;DHT22;13284;52.748;13.452;2023-07-28T09:01:41;20.00;99.90
25332;DHT22;13284;52.748;13.452;2023-07-28T09:04:10;20.20;99.90
25332;DHT22;13284;52.748;13.452;2023-07-28T09:06:36;20.30;99.90
25332;DHT22;13284;52.748;13.452;2023-07-28T09:09:02;20.40;99.90
25332;DHT22;13284;52.748;13.452;2023-07-28T09:11:30;20.60;99.90
25332;DHT22;13284;52.748;13.452;2023-07-28T09:13:56;20.60;99.90
25332;DHT22;13284;52.748;13.452;2023-07-28T09:16:24;20.60;99.90
25332;DHT22;13284;52.748;13.452;2023-07-28T09:19:03;20.60;99.90
25332;DHT22;13284;52.748;13.452;2023-07-28T09:21:29;20.60;99.90
25332;DHT22;13284;52.748;13.452;2023-07-28T09:23:55;20.50;99.90
25332;DHT22;13284;52.748;13.452;2023-07-28T09:26:20;20.60;99.90
25332;DHT22;13284;52.748;13.452;2023-07-28T09:28:46;20.60;99.90
25332;DHT22;13284;52.748;13.452;2023-07-28T09:31:12;20.50;99.90
25332;DHT22;13284;52.748;13.452;2023-07-28T09:33:38;20.30;99.90
25332;DHT22;13284;52.748;13.452;2023-07-28T09:36:13;20.30;99.90
25332;DHT22;13284;52.748;13.452;2023-07-28T09:38:40;20.00;99.90
25332;DHT22;13284;52.748;13.452;2023-07-28T09:41:08;20.00;99.90
25332;DHT22;13284;52.748;13.452;2023-07-28T09:43:36;19.90;99.90
25332;DHT22;13284;52.748;13.452;2023-07-28T09:46:04;19.90;99.90
25332;DHT22;13284;52.748;13.452;2023-07-28T09:48:32;19.90;99.90
25332;DHT22;13284;52.748;13.452;2023-07-28T09:51:02;19.90;99.90
25332;DHT22;13284;52.748;13.452;2023-07-28T09:53:31;19.70;99.90
25332;DHT22;13284;52.748;13.452;2023-07-28T09:55:58;19.60;99.90
25332;DHT22;13284;52.748;13.452;2023-07-28T09:58:25;19.60;99.90
25332;DHT22;13284;52.748;13.452;2023-07-28T10:00:52;19.60;99.90
25332;DHT22;13284;52.748;13.452;2023-07-28T10:03:19;19.80;99.90
25332;DHT22;13284;52.748;13.452;2023-07-28T10:05:44;19.80;99.90
25332;DHT22;13284;52.748;13.452;2023-07-28T10:08:10;19.90;99.90
25332;DHT22;13284;52.748;13.452;2023-07-28T10:10:37;20.40;99.90
25332;DHT22;13284;52.748;13.452;2023-07-28T10:13:05;20.50;99.90
25332;DHT22;13284;52.748;13.452;2023-07-28T10:15:32;20.60;99.90
25332;DHT22;13284;52.748;13.452;2023-07-28T10:17:58;20.50;99.90
25332;DHT22;13284;52.748;13.452;2023-07-28T10:20:34;20.50;99.90
25332;DHT22;13284;52.748;13.452;2023-07-28T10:23:11;20.40;99.90
25332;DHT22;13284;52.748;13.452;2023-07-28T10:25:37;20.70;99.90
25332;DHT22;13284;52.748;13.452;2023-07-28T10:28:04;20.60;99.90
25332;DHT22;13284;52.748;13.452;2023-07-28T10:30:38;20.40;99.90
25332;DHT22;13284;52.748;13.452;2023-07-28T10:33:06;20.30;99.90
25332;DHT22;13284;52.748;13.452;2023-07-28T10:35:31;20.60;99.90
25332;DHT22;13284;52.748;13.452;2023-07-28T10:38:29;20.60;99.90
25332;DHT22;13284;52.748;13.452;2023-07-28T10:41:05;20.50;99.90
25332;DHT22;13284;52.748;13.452;2023-07-28T10:43:32;20.70;99.90
25332;DHT22;13284;52.748;13.452;2023-07-28T10:45:59;21.10;99.90
25332;DHT22;13284;52.748;13.452;2023-07-28T10:48:25;21.90;99.90
25332;DHT22;13284;52.748;13.452;2023-07-28T10:50:51;22.10;99.90
25332;DHT22;13284;52.748;13.452;2023-07-28T10:53:17;21.90;99.90
25332;DHT22;13284;52.748;13.452;2023-07-28T10:55:42;22.30;99.90
25332;DHT22;13284;52.748;13.452;2023-07-28T10:58:09;22.80;99.90
25332;DHT22;13284;52.748;13.452;2023-07-28T11:00:34;23.50;99.90
25332;DHT22;13284;52.748;13.452;2023-07-28T11:03:01;23.60;99.90
25332;DHT22;13284;52.748;13.452;2023-07-28T11:05:28;23.60;99.90
25332;DHT22;13284;52.748;13.452;2023-07-28T11:07:56;22.90;99.90
25332;DHT22;13284;52.748;13.452;2023-07-28T11:10:22;22.60;99.90
25332;DHT22;13284;52.748;13.452;2023-07-28T11:12:49;22.10;99.90
25332;DHT22;13284;52.748;13.452;2023-07-28T11:15:16;21.90;99.90
25332;DHT22;13284;52.748;13.452;2023-07-28T11:17:45;21.90;99.90
25332;DHT22;13284;52.748;13.452;2023-07-28T11:22:46;21.70;99.90
25332;DHT22;13284;52.748;13.452;2023-07-28T11:25:12;21.50;99.90
25332;DHT22;13284;52.748;13.452;2023-07-28T11:27:39;21.40;99.90
25332;DHT22;13284;52.748;13.452;2023-07-28T11:30:07;21.10;99.90
25332;DHT22;13284;52.748;13.452;2023-07-28T11:32:37;21.00;99.90
25332;DHT22;13284;52.748;13.452;2023-07-28T11:35:04;20.90;99.90
25332;DHT22;13284;52.748;13.452;2023-07-28T11:37:31;21.10;99.90
25332;DHT22;13284;52.748;13.452;2023-07-28T11:39:59;21.80;99.90
25332;DHT22;13284;52.748;13.452;2023-07-28T11:42:27;22.90;99.90
25332;DHT22;13284;52.748;13.452;2023-07-28T11:44:52;22.80;99.90
25332;DHT22;13284;52.748;13.452;2023-07-28T11:47:18;22.60;99.90
25332;DHT22;13284;52.748;13.452;2023-07-28T11:49:47;22.50;99.90
25332;DHT22;13284;52.748;13.452;2023-07-28T11:52:13;23.10;99.90
25332;DHT22;13284;52.748;13.452;2023-07-28T11:54:39;23.20;99.90
25332;DHT22;13284;52.748;13.452;2023-07-28T11:57:07;23.10;99.90
25332;DHT22;13284;52.748;13.452;2023-07-28T11:59:34;23.40;99.90
25332;DHT22;13284;52.748;13.452;2023-07-28T12:02:02;24.00;99.90
25332;DHT22;13284;52.748;13.452;2023-07-28T12:04:32;24.30;99.90
25332;DHT22;13284;52.748;13.452;2023-07-28T12:07:07;23.80;99.90
25332;DHT22;13284;52.748;13.452;2023-07-28T12:09:47;23.80;99.90
25332;DHT22;13284;52.748;13.452;2023-07-28T12:12:22;24.10;99.90
25332;DHT22;13284;52.748;13.452;2023-07-28T12:14:49;24.40;99.90
25332;DHT22;13284;52.748;13.452;2023-07-28T12:17:24;24.10;99.90
25332;DHT22;13284;52.748;13.452;2023-07-28T12:20:06;23.60;99.90
25332;DHT22;13284;52.748;13.452;2023-07-28T12:22:41;23.40;99.90
25332;DHT22;13284;52.748;13.452;2023-07-28T12:25:07;23.20;99.90
25332;DHT22;13284;52.748;13.452;2023-07-28T12:27:33;23.10;99.90
25332;DHT22;13284;52.748;13.452;2023-07-28T12:30:00;22.90;99.90
25332;DHT22;13284;52.748;13.452;2023-07-28T12:32:25;23.00;99.90
25332;DHT22;13284;52.748;13.452;2023-07-28T12:34:51;23.10;99.90
25332;DHT22;13284;52.748;13.452;2023-07-28T12:37:20;22.80;99.90
25332;DHT22;13284;52.748;13.452;2023-07-28T12:39:47;22.60;99.90
25332;DHT22;13284;52.748;13.452;2023-07-28T12:42:13;22.60;99.90
25332;DHT22;13284;52.748;13.452;2023-07-28T12:44:40;22.40;99.90
25332;DHT22;13284;52.748;13.452;2023-07-28T12:47:06;22.30;99.90
25332;DHT22;13284;52.748;13.452;2023-07-28T12:49:32;22.40;99.90
25332;DHT22;13284;52.748;13.452;2023-07-28T12:52:01;23.10;99.90
25332;DHT22;13284;52.748;13.452;2023-07-28T12:54:27;23.80;99.90
25332;DHT22;13284;52.748;13.452;2023-07-28T12:56:55;24.10;99.90
25332;DHT22;13284;52.748;13.452;2023-07-28T12:59:21;24.40;99.90
25332;DHT22;13284;52.748;13.452;2023-07-28T13:01:46;24.20;99.90
25332;DHT22;13284;52.748;13.452;2023-07-28T13:04:12;23.80;99.90
25332;DHT22;13284;52.748;13.452;2023-07-28T13:06:37;23.40;99.90
25332;DHT22;13284;52.748;13.452;2023-07-28T13:09:03;23.10;99.90
25332;DHT22;13284;52.748;13.452;2023-07-28T13:11:29;23.20;99.90
25332;DHT22;13284;52.748;13.452;2023-07-28T13:13:54;23.20;99.90
25332;DHT22;13284;52.748;13.452;2023-07-28T13:16:20;23.30;99.90
25332;DHT22;13284;52.748;13.452;2023-07-28T13:18:46;23.40;99.90
25332;DHT22;13284;52.748;13.452;2023-07-28T13:21:12;23.30;99.90
25332;DHT22;13284;52.748;13.452;2023-07-28T13:23:38;23.20;99.90
25332;DHT22;13284;52.748;13.452;2023-07-28T13:26:04;23.30;99.90
25332;DHT22;13284;52.748;13.452;2023-07-28T13:28:29;23.30;99.90
25332;DHT22;13284;52.748;13.452;2023-07-28T13:30:55;23.20;99.90
25332;DHT22;13284;52.748;13.452;2023-07-28T13:33:21;23.20;99.90
25332;DHT22;13284;52.748;13.452;2023-07-28T13:35:46;23.10;99.90
25332;DHT22;13284;52.748;13.452;2023-07-28T13:38:12;22.90;99.90
25332;DHT22;13284;52.748;13.452;2023-07-28T13:40:37;22.90;99.90
25332;DHT22;13284;52.748;13.452;2023-07-28T13:43:03;22.90;99.90
25332;DHT22;13284;52.748;13.452;2023-07-28T13:45:28;22.90;99.90
25332;DHT22;13284;52.748;13.452;2023-07-28T13:47:54;22.90;99.90
25332;DHT22;13284;52.748;13.452;2023-07-28T13:50:20;22.90;99.90
25332;DHT22;13284;52.748;13.452;2023-07-28T13:52:45;23.00;99.90
25332;DHT22;13284;52.748;13.452;2023-07-28T13:55:11;22.90;99.90
25332;DHT22;13284;52.748;13.452;2023-07-28T13:57:36;22.70;99.90
25332;DHT22;13284;52.748;13.452;2023-07-28T14:00:03;22.80;99.90
25332;DHT22;13284;52.748;13.452;2023-07-28T14:02:28;22.90;99.90
25332;DHT22;13284;52.748;13.452;2023-07-28T14:04:54;22.90;99.90
25332;DHT22;13284;52.748;13.452;2023-07-28T14:07:19;22.90;99.90
25332;DHT22;13284;52.748;13.452;2023-07-28T14:09:45;22.80;99.90
25332;DHT22;13284;52.748;13.452;2023-07-28T14:12:11;22.80;99.90
25332;DHT22;13284;52.748;13.452;2023-07-28T14:14:36;22.80;99.90
25332;DHT22;13284;52.748;13.452;2023-07-28T14:17:02;22.90;99.90
25332;DHT22;13284;52.748;13.452;2023-07-28T14:19:28;22.90;99.90
25332;DHT22;13284;52.748;13.452;2023-07-28T14:21:53;23.10;99.90
25332;DHT22;13284;52.748;13.452;2023-07-28T14:24:18;23.00;99.90
25332;DHT22;13284;52.748;13.452;2023-07-28T14:26:45;22.90;99.90
25332;DHT22;13284;52.748;13.452;2023-07-28T14:29:10;23.00;99.90
25332;DHT22;13284;52.748;13.452;2023-07-28T14:31:35;23.20;99.90
25332;DHT22;13284;52.748;13.452;2023-07-28T14:34:01;23.30;99.90
25332;DHT22;13284;52.748;13.452;2023-07-28T14:36:26;23.70;99.90
25332;DHT22;13284;52.748;13.452;2023-07-28T14:38:52;23.70;99.90
25332;DHT22;13284;52.748;13.452;2023-07-28T14:41:17;23.70;99.90
25332;DHT22;13284;52.748;13.452;2023-07-28T14:43:43;23.60;99.90
25332;DHT22;13284;52.748;13.452;2023-07-28T14:46:08;23.60;99.90
25332;DHT22;13284;52.748;13.452;2023-07-28T14:48:34;23.50;99.90
25332;DHT22;13284;52.748;13.452;2023-07-28T14:51:00;23.40;99.90
25332;DHT22;13284;52.748;13.452;2023-07-28T14:55:55;23.60;99.90
25332;DHT22;13284;52.748;13.452;2023-07-28T14:58:21;23.40;99.90
25332;DHT22;13284;52.748;13.452;2023-07-28T15:00:46;23.00;99.90
25332;DHT22;13284;52.748;13.452;2023-07-28T15:03:12;23.00;99.90
25332;DHT22;13284;52.748;13.452;2023-07-28T15:05:37;22.90;99.90
25332;DHT22;13284;52.748;13.452;2023-07-28T15:08:03;22.80;99.90
25332;DHT22;13284;52.748;13.452;2023-07-28T15:10:28;22.90;99.90
25332;DHT22;13284;52.748;13.452;2023-07-28T15:12:54;22.90;99.90
25332;DHT22;13284;52.748;13.452;2023-07-28T15:15:19;23.00;99.90
25332;DHT22;13284;52.748;13.452;2023-07-28T15:17:45;23.00;99.90
25332;DHT22;13284;52.748;13.452;2023-07-28T15:20:10;23.20;99.90